Time;durP1;ratioP1;P1;durP2;ratioP2;P2;SDS_P1;SDS_P2;PMS_P1;PMS_P2;Temp;Humidity;BMP_temperature;BMP_pressure;BME280_temperature;BME280_humidity;BME280_pressure;Samples;Min_cycle;Max_cycle;Signal;HPM_P1;HPM_P2
2022/03/01 00:01:28;;;;;;;25.07;15.27;;;;;;;2.28;58.88;101721.16;5061642;28;20516;-65
2022/03/01 00:03:56;;;;;;;28.93;17.03;;;;;;;2.22;58.68;101717.81;5057834;28;20803;-65
2022/03/01 00:06:23;;;;;;;22.53;12.97;;;;;;;2.09;59.35;101710.38;5044778;28;20473;-65
2022/03/01 00:08:49;;;;;;;25.27;13.67;;;;;;;2.14;59.23;101725.13;5055240;28;20893;-65
2022/03/01 00:11:16;;;;;;;25.40;13.83;;;;;;;2.11;59.30;101716.44;5046450;28;20477;-64
2022/03/01 00:13:42;;;;;;;27.83;14.80;;;;;;;2.19;59.34;101723.19;5049529;28;20485;-64
2022/03/01 00:16:09;;;;;;;22.13;13.67;;;;;;;2.17;59.09;101714.47;5063313;28;20445;-64
2022/03/01 00:18:35;;;;;;;30.33;16.43;;;;;;;2.11;59.47;101708.53;5054906;28;20895;-64
2022/03/01 00:21:03;;;;;;;25.73;14.30;;;;;;;2.04;59.68;101718.41;5044777;28;20501;-65
2022/03/01 00:23:30;;;;;;;28.63;14.43;;;;;;;1.99;59.94;101713.28;5059800;28;20839;-65
2022/03/01 00:25:57;;;;;;;29.13;16.37;;;;;;;2.00;59.90;101714.16;5044030;28;20426;-65
2022/03/01 00:28:23;;;;;;;29.13;15.23;;;;;;;2.05;59.96;101718.38;5051323;28;20446;-65
2022/03/01 00:30:50;;;;;;;24.73;14.53;;;;;;;1.91;60.44;101715.31;5054973;28;20573;-64
2022/03/01 00:33:16;;;;;;;26.90;14.93;;;;;;;1.79;60.75;101718.31;5050262;28;20932;-65
2022/03/01 00:35:43;;;;;;;27.67;15.63;;;;;;;1.85;60.67;101718.13;5053701;28;20445;-64
2022/03/01 00:38:11;;;;;;;27.77;15.00;;;;;;;1.87;60.71;101711.91;5062436;28;20452;-65
2022/03/01 00:40:38;;;;;;;25.87;15.13;;;;;;;1.74;61.21;101713.22;5046215;28;20869;-65
2022/03/01 00:43:04;;;;;;;23.20;14.57;;;;;;;1.61;61.58;101706.56;5060116;28;20544;-65
2022/03/01 00:45:31;;;;;;;21.90;14.03;;;;;;;1.68;61.45;101710.75;5045405;28;20462;-65
2022/03/01 00:47:58;;;;;;;23.07;13.70;;;;;;;1.66;61.51;101708.16;5040912;28;20524;-65
2022/03/01 00:50:25;;;;;;;23.67;14.77;;;;;;;1.65;61.48;101698.53;5042759;28;20478;-65
2022/03/01 00:52:51;;;;;;;28.80;15.57;;;;;;;1.69;61.46;101694.03;5046236;28;20480;-65
2022/03/01 00:55:19;;;;;;;30.90;14.53;;;;;;;1.57;61.43;101699.69;5059959;28;20505;-65
2022/03/01 00:57:46;;;;;;;27.43;14.70;;;;;;;1.57;61.73;101692.63;5058593;28;20536;-65
2022/03/01 01:00:13;;;;;;;31.30;17.00;;;;;;;1.56;61.99;101682.97;5060368;28;20521;-65
2022/03/01 01:02:40;;;;;;;27.00;14.90;;;;;;;1.47;62.36;101691.19;5061060;28;20470;-65
2022/03/01 01:05:07;;;;;;;27.60;14.93;;;;;;;1.35;62.84;101687.16;5042581;28;20454;-65
2022/03/01 01:07:34;;;;;;;31.80;14.40;;;;;;;1.46;62.88;101684.22;5043775;28;20437;-65
2022/03/01 01:10:01;;;;;;;27.93;17.60;;;;;;;1.41;63.14;101692.25;5053474;28;20635;-65
2022/03/01 01:12:29;;;;;;;26.90;15.13;;;;;;;1.36;63.16;101680.97;5042499;28;20469;-65
2022/03/01 01:14:55;;;;;;;28.07;16.33;;;;;;;1.33;63.52;101681.06;5060327;28;20536;-64
2022/03/01 01:17:22;;;;;;;27.63;13.70;;;;;;;1.36;63.34;101686.25;5045686;28;20492;-65
2022/03/01 01:19:49;;;;;;;26.57;15.27;;;;;;;1.25;63.68;101678.66;5043845;28;21465;-65
2022/03/01 01:24:59;;;;;;;28.83;14.97;;;;;;;1.41;63.59;101680.84;5037501;28;20526;-65
2022/03/01 01:27:26;;;;;;;25.70;15.57;;;;;;;1.47;63.53;101680.66;5041589;28;20512;-65
2022/03/01 01:29:54;;;;;;;25.47;14.80;;;;;;;1.47;63.50;101683.28;5059683;28;20505;-64
2022/03/01 01:32:20;;;;;;;31.87;14.63;;;;;;;1.50;63.80;101689.31;5059557;28;20488;-65
2022/03/01 01:34:47;;;;;;;28.73;16.10;;;;;;;1.45;63.93;101685.09;5045691;28;20485;-65
2022/03/01 01:37:13;;;;;;;27.60;15.53;;;;;;;1.34;64.45;101690.69;5041769;28;20474;-65
2022/03/01 01:39:40;;;;;;;29.90;15.70;;;;;;;1.20;65.15;101682.31;5054833;28;20480;-64
2022/03/01 01:42:07;;;;;;;32.23;17.10;;;;;;;1.25;65.08;101678.66;5044181;28;20993;-65
2022/03/01 01:44:34;;;;;;;25.47;14.27;;;;;;;1.38;64.70;101686.22;5058159;28;20529;-64
2022/03/01 01:47:02;;;;;;;29.87;15.43;;;;;;;1.26;64.63;101682.16;5041426;28;20450;-65
2022/03/01 01:49:28;;;;;;;32.77;16.73;;;;;;;1.22;64.88;101683.16;5041225;28;20464;-64
2022/03/01 01:51:55;;;;;;;28.17;16.83;;;;;;;1.24;64.82;101678.72;5041844;28;20476;-64
2022/03/01 01:54:22;;;;;;;26.20;16.20;;;;;;;1.31;64.55;101685.53;5048987;28;20478;-64
2022/03/01 01:56:49;;;;;;;33.83;15.03;;;;;;;1.22;64.74;101686.66;5042541;28;20693;-65
2022/03/01 01:59:15;;;;;;;26.30;14.33;;;;;;;1.27;64.86;101681.25;5055752;28;20444;-66
2022/03/01 02:01:42;;;;;;;33.73;16.67;;;;;;;1.33;64.46;101681.06;5057501;28;20529;-65
2022/03/01 02:04:10;;;;;;;31.30;15.00;;;;;;;1.23;64.55;101677.84;5040589;28;20449;-65
2022/03/01 02:06:37;;;;;;;32.20;15.07;;;;;;;1.15;64.83;101685.13;5061340;28;20449;-65
2022/03/01 02:09:04;;;;;;;30.43;15.37;;;;;;;1.14;64.82;101683.38;5061280;28;20472;-64
2022/03/01 02:11:31;;;;;;;32.90;17.33;;;;;;;1.23;64.78;101684.88;5047689;28;20549;-64
2022/03/01 02:13:58;;;;;;;29.80;15.77;;;;;;;1.17;64.86;101685.06;5044043;28;20448;-64
2022/03/01 02:16:24;;;;;;;28.40;16.23;;;;;;;1.02;65.38;101679.31;5059725;28;20519;-64
2022/03/01 02:18:51;;;;;;;29.10;15.90;;;;;;;0.86;66.41;101680.69;5058291;28;20548;-64
2022/03/01 02:21:19;;;;;;;33.50;16.80;;;;;;;0.88;66.62;101684.13;5047589;28;20476;-64
2022/03/01 02:23:45;;;;;;;31.97;16.30;;;;;;;0.90;66.66;101677.03;5054068;28;20601;-64
2022/03/01 02:26:12;;;;;;;27.90;15.47;;;;;;;0.99;66.52;101675.91;5056432;28;21022;-64
2022/03/01 02:28:38;;;;;;;28.87;16.60;;;;;;;0.93;66.71;101679.59;5044737;28;20509;-65
2022/03/01 02:31:05;;;;;;;28.63;17.47;;;;;;;0.88;66.88;101676.22;5046822;28;20512;-64
2022/03/01 02:33:31;;;;;;;26.80;14.10;;;;;;;0.86;66.96;101676.28;5048318;28;20457;-64
2022/03/01 02:35:58;;;;;;;34.83;16.33;;;;;;;0.81;67.33;101677.31;5046234;28;20514;-64
2022/03/01 02:38:26;;;;;;;28.33;15.47;;;;;;;0.77;67.60;101673.06;5053722;28;20553;-65
2022/03/01 02:40:53;;;;;;;26.20;15.63;;;;;;;0.70;67.77;101678.47;5045353;28;20834;-64
2022/03/01 02:43:19;;;;;;;30.97;17.57;;;;;;;0.77;67.49;101666.00;5044300;28;20971;-64
2022/03/01 02:45:46;;;;;;;25.87;14.67;;;;;;;0.86;67.19;101678.03;5044617;28;20461;-64
2022/03/01 02:48:12;;;;;;;28.90;15.60;;;;;;;0.85;66.98;101678.94;5046001;28;20580;-64
2022/03/01 02:50:39;;;;;;;31.50;17.27;;;;;;;0.87;67.07;101674.53;5062647;28;20548;-65
2022/03/01 02:53:05;;;;;;;27.97;16.40;;;;;;;0.89;66.87;101678.81;5044143;28;20485;-66
2022/03/01 02:55:33;;;;;;;31.30;16.87;;;;;;;0.90;66.55;101675.28;5047771;28;20541;-65
2022/03/01 02:58:00;;;;;;;25.60;15.43;;;;;;;0.90;66.43;101675.28;5044579;28;20934;-66
2022/03/01 03:00:27;;;;;;;31.93;17.80;;;;;;;0.98;66.41;101671.56;5045461;28;20513;-64
2022/03/01 03:02:53;;;;;;;34.37;17.43;;;;;;;0.95;66.46;101672.50;5043646;28;20453;-65
2022/03/01 03:05:20;;;;;;;28.37;17.40;;;;;;;0.93;66.36;101677.81;5060807;28;20453;-65
2022/03/01 03:07:46;;;;;;;32.93;17.00;;;;;;;0.85;66.53;101673.69;5062766;28;20520;-64
2022/03/01 03:10:13;;;;;;;31.87;16.50;;;;;;;0.80;66.96;101671.19;5064429;28;20555;-64
2022/03/01 03:12:41;;;;;;;26.97;15.73;;;;;;;0.78;66.92;101667.72;5060211;28;20473;-64
2022/03/01 03:15:09;;;;;;;30.00;17.03;;;;;;;0.70;67.26;101665.31;5053732;28;20488;-64
2022/03/01 03:17:36;;;;;;;31.50;17.23;;;;;;;0.79;67.39;101665.97;5057820;28;20483;-64
2022/03/01 03:20:04;;;;;;;32.17;17.67;;;;;;;0.81;67.41;101662.38;5062506;28;20471;-65
2022/03/01 03:22:30;;;;;;;26.45;15.15;;;;;;;0.82;67.21;101661.47;5062511;28;20472;-64
2022/03/01 03:24:57;;;;;;;29.77;16.60;;;;;;;0.96;67.03;101658.44;5056044;28;20246;-65
2022/03/01 03:27:24;;;;;;;32.17;16.63;;;;;;;0.90;67.08;101666.50;5056880;28;20441;-65
2022/03/01 03:29:52;;;;;;;32.07;16.37;;;;;;;1.00;66.85;101656.59;5053868;28;20474;-64
2022/03/01 03:32:18;;;;;;;31.30;16.60;;;;;;;0.82;67.29;101661.47;5058846;28;20467;-65
2022/03/01 03:34:45;;;;;;;32.83;17.37;;;;;;;0.85;67.37;101665.78;5058454;28;20519;-65
2022/03/01 03:37:12;;;;;;;31.63;17.83;;;;;;;0.85;67.41;101666.66;5047053;28;20470;-64
2022/03/01 03:39:38;;;;;;;29.27;16.10;;;;;;;0.93;67.11;101664.66;5055013;28;20509;-65
2022/03/01 03:42:05;;;;;;;30.70;16.57;;;;;;;0.91;67.07;101661.19;5061001;28;20934;-65
2022/03/01 03:44:31;;;;;;;28.57;16.57;;;;;;;0.97;66.89;101664.56;5047506;28;20471;-64
2022/03/01 03:46:59;;;;;;;30.90;15.37;;;;;;;0.93;67.28;101654.13;5047007;28;20537;-64
2022/03/01 03:49:26;;;;;;;35.20;16.87;;;;;;;0.90;67.11;101659.50;5043861;28;20525;-65
2022/03/01 03:51:52;;;;;;;32.00;16.97;;;;;;;0.79;67.62;101658.06;5058056;28;20487;-65
2022/03/01 03:54:19;;;;;;;30.33;16.00;;;;;;;0.79;67.73;101651.03;5044715;28;20501;-64
2022/03/01 03:56:46;;;;;;;32.73;16.20;;;;;;;0.78;67.75;101648.44;5043877;28;20550;-65
2022/03/01 03:59:12;;;;;;;31.80;17.10;;;;;;;0.80;67.48;101660.66;5058668;28;20508;-64
2022/03/01 04:01:39;;;;;;;27.50;17.47;;;;;;;0.68;67.66;101653.97;5051368;28;20465;-64
2022/03/01 04:04:08;;;;;;;31.53;16.93;;;;;;;0.82;67.64;101652.72;5059934;28;20552;-65
2022/03/01 04:06:35;;;;;;;32.23;16.00;;;;;;;0.70;67.93;101654.78;5050737;28;20934;-64
2022/03/01 04:09:01;;;;;;;28.40;16.53;;;;;;;0.73;67.93;101646.81;5059405;28;20501;-64
2022/03/01 04:11:28;;;;;;;29.40;16.20;;;;;;;0.60;68.04;101641.91;5062471;28;20549;-64
2022/03/01 04:13:54;;;;;;;32.30;17.27;;;;;;;0.63;68.08;101645.34;5053647;28;20561;-64
2022/03/01 04:16:21;;;;;;;28.63;15.60;;;;;;;0.71;67.77;101640.72;5048426;28;20468;-65
2022/03/01 04:18:48;;;;;;;27.43;16.23;;;;;;;0.61;67.94;101641.88;5056373;28;20512;-66
2022/03/01 04:21:17;;;;;;;35.40;15.70;;;;;;;0.72;67.91;101641.56;5047698;28;20468;-66
2022/03/01 04:23:43;;;;;;;36.70;18.30;;;;;;;0.70;67.98;101640.75;5060068;28;20445;-66
2022/03/01 04:26:11;;;;;;;33.53;16.87;;;;;;;0.66;68.09;101636.47;5043403;28;20505;-66
2022/03/01 04:28:37;;;;;;;33.80;17.47;;;;;;;0.63;68.15;101640.06;5043106;28;20434;-64
2022/03/01 04:31:04;;;;;;;28.50;16.27;;;;;;;0.60;68.00;101634.03;5049622;28;20476;-66
2022/03/01 04:33:31;;;;;;;31.07;17.07;;;;;;;0.66;67.93;101633.84;5045298;28;20458;-65
2022/03/01 04:35:59;;;;;;;37.50;17.23;;;;;;;0.67;67.80;101638.22;5049390;28;20864;-65
2022/03/01 04:38:28;;;;;;;32.20;15.27;;;;;;;0.69;67.86;101652.19;5046840;28;21173;-65
2022/03/01 04:40:55;;;;;;;32.27;17.07;;;;;;;0.70;67.71;101652.16;5056168;28;20446;-66
2022/03/01 04:43:22;;;;;;;29.47;15.50;;;;;;;0.67;67.65;101651.38;5049216;28;21321;-65
2022/03/01 04:45:49;;;;;;;26.40;15.80;;;;;;;0.69;67.42;101646.91;5050261;28;20445;-65
2022/03/01 04:48:16;;;;;;;27.97;17.40;;;;;;;0.72;67.35;101649.47;5041109;28;20485;-65
2022/03/01 04:50:42;;;;;;;29.60;16.00;;;;;;;0.69;67.34;101641.66;5042845;28;20508;-64
2022/03/01 04:53:10;;;;;;;31.73;17.00;;;;;;;0.56;67.76;101643.78;5042006;28;20484;-65
2022/03/01 04:55:38;;;;;;;30.90;16.73;;;;;;;0.43;68.56;101645.00;5055766;28;20548;-64
2022/03/01 04:58:05;;;;;;;35.90;17.20;;;;;;;0.32;69.09;101645.31;5056619;28;20485;-64
2022/03/01 05:00:32;;;;;;;28.50;15.70;;;;;;;0.37;69.08;101636.38;5055300;28;20508;-64
2022/03/01 05:02:58;;;;;;;31.37;17.40;;;;;;;0.29;69.20;101640.13;5045777;28;20544;-65
2022/03/01 05:05:25;;;;;;;30.97;16.87;;;;;;;0.28;69.38;101639.25;5042133;28;20488;-64
2022/03/01 05:07:51;;;;;;;32.30;17.03;;;;;;;0.37;69.20;101640.78;5042918;28;20931;-65
2022/03/01 05:10:19;;;;;;;31.13;16.63;;;;;;;0.39;69.06;101648.63;5057167;28;20470;-65
2022/03/01 05:12:49;;;;;;;34.73;16.83;;;;;;;0.37;69.17;101639.00;5038751;28;20509;-64
2022/03/01 05:15:17;;;;;;;32.10;16.67;;;;;;;0.37;69.12;101644.25;5040701;28;20493;-65
2022/03/01 05:17:44;;;;;;;30.77;16.80;;;;;;;0.34;69.36;101641.72;5038982;28;21897;-64
2022/03/01 05:20:12;;;;;;;32.97;17.57;;;;;;;0.27;69.49;101634.88;5044543;28;20489;-70
2022/03/01 05:22:39;;;;;;;29.90;15.70;;;;;;;0.23;69.61;101628.00;5046112;28;20474;-69
2022/03/01 05:25:06;;;;;;;33.80;16.80;;;;;;;0.20;69.83;101643.00;5039194;28;20461;-69
2022/03/01 05:27:33;;;;;;;32.83;17.07;;;;;;;0.19;70.29;101634.22;5040064;28;20521;-68
2022/03/01 05:30:01;;;;;;;27.53;16.00;;;;;;;0.14;70.29;101625.59;5044005;28;20445;-68
2022/03/01 05:32:28;;;;;;;31.15;17.05;;;;;;;0.16;70.04;101635.19;5042975;28;20537;-68
2022/03/01 05:34:54;;;;;;;34.92;18.40;;;;;;;0.02;70.53;101639.06;5043516;28;20231;-68
2022/03/01 05:37:21;;;;;;;29.15;16.75;;;;;;;0.02;70.50;101633.78;5041970;28;20199;-69
2022/03/01 05:39:48;;;;;;;29.90;17.30;;;;;;;0.07;70.52;101634.53;5041385;28;20209;-68
2022/03/01 05:42:14;;;;;;;29.17;16.40;;;;;;;0.03;70.60;101635.53;5033610;28;20533;-68
2022/03/01 05:44:41;;;;;;;29.43;16.07;;;;;;;-0.01;70.86;101632.13;5031901;28;20514;-68
2022/03/01 05:47:09;;;;;;;30.20;17.37;;;;;;;-0.01;70.96;101625.09;5033161;28;20501;-68
2022/03/01 05:49:35;;;;;;;31.60;17.13;;;;;;;0.07;70.80;101632.78;5038085;28;20500;-68
2022/03/01 05:52:02;;;;;;;39.10;16.90;;;;;;;0.07;70.57;101645.06;5036505;28;20538;-66
2022/03/01 05:54:29;;;;;;;33.87;17.53;;;;;;;0.08;70.51;101647.66;5039165;28;20500;-68
2022/03/01 05:56:55;;;;;;;29.90;16.67;;;;;;;0.01;70.47;101642.59;5036964;28;20509;-68
2022/03/01 05:59:22;;;;;;;37.70;19.17;;;;;;;0.12;70.18;101637.91;5040530;28;20484;-66
2022/03/01 06:01:49;;;;;;;32.67;15.80;;;;;;;0.18;69.97;101643.03;5040910;28;20472;-67
2022/03/01 06:04:17;;;;;;;35.60;17.27;;;;;;;0.21;69.69;101648.22;5037322;28;20536;-67
2022/03/01 06:06:43;;;;;;;31.23;16.80;;;;;;;0.25;69.41;101657.75;5039383;28;20865;-67
2022/03/01 06:09:10;;;;;;;28.03;16.53;;;;;;;0.31;69.19;101659.34;5039962;28;20896;-67
2022/03/01 06:11:36;;;;;;;36.90;17.03;;;;;;;0.39;68.86;101656.53;5039822;28;20532;-66
2022/03/01 06:14:03;;;;;;;29.42;16.50;;;;;;;0.29;68.86;101662.00;5040675;28;20497;-66
2022/03/01 06:16:30;;;;;;;30.90;17.07;;;;;;;0.32;68.82;101654.03;5040915;28;20234;-67
2022/03/01 06:18:57;;;;;;;31.42;16.98;;;;;;;0.34;68.83;101664.53;5031087;28;20470;-64
2022/03/01 06:21:25;;;;;;;35.93;16.80;;;;;;;0.51;68.73;101664.94;5033479;28;20294;-69
2022/03/01 06:23:51;;;;;;;29.20;16.67;;;;;;;0.69;68.75;101662.72;5040302;28;20484;-66
2022/03/01 06:26:18;;;;;;;32.77;19.00;;;;;;;0.62;68.22;101667.28;5036332;28;20479;-67
2022/03/01 06:28:45;;;;;;;34.87;16.60;;;;;;;0.63;67.81;101670.78;5032081;28;21157;-66
2022/03/01 06:31:11;;;;;;;30.80;17.03;;;;;;;0.79;67.58;101669.44;5025468;28;20509;-65
2022/03/01 06:33:38;;;;;;;33.10;17.93;;;;;;;0.82;67.30;101671.16;5034746;28;21020;-66
2022/03/01 06:36:05;;;;;;;36.53;18.00;;;;;;;0.92;66.76;101665.56;5038612;28;21037;-66
2022/03/01 06:38:33;;;;;;;28.70;16.60;;;;;;;1.64;65.83;101670.44;5030428;28;20453;-65
2022/03/01 06:41:00;;;;;;;28.47;15.87;;;;;;;2.89;61.71;101658.28;5039647;28;20461;-65
2022/03/01 06:43:27;;;;;;;26.30;16.40;;;;;;;4.04;57.36;101652.91;5040715;28;20473;-66
2022/03/01 06:45:53;;;;;;;29.10;15.40;;;;;;;4.44;55.34;101661.78;5041035;28;20486;-66
2022/03/01 06:48:20;;;;;;;24.63;15.23;;;;;;;4.49;55.70;101664.25;5038878;28;20485;-67
2022/03/01 06:50:47;;;;;;;25.23;14.87;;;;;;;4.86;53.64;101668.78;5040645;28;20465;-67
2022/03/01 06:53:14;;;;;;;27.20;15.17;;;;;;;4.34;54.18;101676.38;5038608;28;20500;-66
2022/03/01 06:55:42;;;;;;;24.47;15.53;;;;;;;2.94;58.37;101671.31;5040409;28;20453;-67
2022/03/01 06:58:09;;;;;;;24.33;15.60;;;;;;;2.41;60.18;101678.47;5040918;28;20426;-67
2022/03/01 07:00:36;;;;;;;27.03;14.80;;;;;;;2.19;61.49;101673.06;5039709;28;20438;-67
2022/03/01 07:03:02;;;;;;;26.30;16.57;;;;;;;2.31;61.74;101673.53;5040332;28;20518;-67
2022/03/01 07:05:29;;;;;;;31.13;15.80;;;;;;;2.62;61.14;101673.34;5040143;28;20478;-67
2022/03/01 07:07:55;;;;;;;30.03;16.43;;;;;;;4.71;55.75;101670.31;5040562;28;20437;-67
2022/03/01 07:10:22;;;;;;;24.33;15.63;;;;;;;6.90;49.15;101667.69;5046830;28;20485;-66
2022/03/01 07:12:51;;;;;;;26.30;15.83;;;;;;;7.71;46.34;101662.34;5045970;28;20498;-67
2022/03/01 07:15:18;;;;;;;26.20;16.20;;;;;;;7.61;45.12;101657.63;5042824;28;21037;-66
2022/03/01 07:17:45;;;;;;;25.83;16.67;;;;;;;7.26;45.66;101656.00;5046505;28;20442;-67
2022/03/01 07:20:12;;;;;;;25.90;16.00;;;;;;;8.19;43.14;101670.22;5043800;28;20461;-67
2022/03/01 07:22:39;;;;;;;20.13;14.10;;;;;;;8.81;42.76;101663.94;5042707;28;20466;-67
2022/03/01 07:25:07;;;;;;;23.67;14.33;;;;;;;6.92;45.77;101668.44;5043652;28;20517;-65
2022/03/01 07:27:34;;;;;;;26.67;14.70;;;;;;;4.69;51.25;101666.88;5043782;28;20434;-65
2022/03/01 07:30:02;;;;;;;25.33;16.13;;;;;;;3.87;54.35;101676.53;5043118;28;20826;-66
2022/03/01 07:32:28;;;;;;;23.03;14.20;;;;;;;4.41;54.07;101688.41;5043524;28;20504;-64
2022/03/01 07:34:56;;;;;;;26.33;15.50;;;;;;;5.76;50.45;101677.88;5042653;28;20520;-66
2022/03/01 07:37:22;;;;;;;21.17;15.03;;;;;;;6.72;47.51;101684.63;5043056;28;20430;-67
2022/03/01 07:39:49;;;;;;;23.17;13.57;;;;;;;6.94;45.89;101671.91;5043394;28;20485;-67
2022/03/01 07:42:16;;;;;;;25.83;14.80;;;;;;;8.05;43.88;101667.53;5043389;28;20509;-66
2022/03/01 07:44:43;;;;;;;23.70;14.90;;;;;;;8.70;42.47;101669.94;5042305;28;20489;-67
2022/03/01 07:47:10;;;;;;;23.30;14.77;;;;;;;8.66;41.54;101673.72;5043601;28;20911;-67
2022/03/01 07:49:37;;;;;;;20.77;14.20;;;;;;;10.60;37.94;101671.91;5041854;28;20489;-67
2022/03/01 07:52:04;;;;;;;22.20;14.97;;;;;;;9.68;38.87;101670.03;5042796;28;20477;-67
2022/03/01 07:54:31;;;;;;;22.00;13.80;;;;;;;9.18;39.81;101669.63;5040597;28;20478;-65
2022/03/01 07:56:57;;;;;;;21.07;14.30;;;;;;;7.68;43.50;101669.66;5040050;28;20480;-66
2022/03/01 07:59:24;;;;;;;25.30;14.40;;;;;;;6.68;45.82;101669.75;5043113;28;20479;-66
2022/03/01 08:01:51;;;;;;;19.80;14.13;;;;;;;5.91;47.38;101677.13;5041772;28;20497;-66
2022/03/01 08:04:19;;;;;;;22.43;14.03;;;;;;;5.50;48.32;101677.34;5041657;28;20477;-67
2022/03/01 08:06:46;;;;;;;22.93;13.50;;;;;;;5.35;48.64;101676.28;5042734;28;20454;-65
2022/03/01 08:09:12;;;;;;;22.00;13.83;;;;;;;5.14;50.13;101666.66;5042358;28;20513;-65
2022/03/01 08:11:39;;;;;;;23.37;15.53;;;;;;;5.40;49.44;101671.63;5043316;28;20508;-66
2022/03/01 08:14:06;;;;;;;22.00;14.73;;;;;;;5.51;49.30;101670.25;5042517;28;20537;-66
2022/03/01 08:16:32;;;;;;;21.30;14.40;;;;;;;5.24;49.77;101678.56;5041840;28;20669;-66
2022/03/01 08:18:59;;;;;;;22.13;13.50;;;;;;;5.95;48.47;101675.19;5041429;28;20478;-66
2022/03/01 08:21:27;;;;;;;23.23;14.37;;;;;;;7.81;45.06;101665.34;5042964;28;20461;-66
2022/03/01 08:23:54;;;;;;;21.07;13.67;;;;;;;8.65;41.03;101662.19;5041574;28;21101;-66
2022/03/01 08:26:20;;;;;;;20.20;12.50;;;;;;;9.38;40.72;101666.56;5043113;28;20457;-66
2022/03/01 08:28:47;;;;;;;20.93;13.50;;;;;;;9.92;38.16;101665.72;5042662;28;20874;-67
2022/03/01 08:31:14;;;;;;;21.07;13.00;;;;;;;10.67;36.80;101664.31;5041542;28;20458;-67
2022/03/01 08:33:41;;;;;;;22.50;13.90;;;;;;;10.42;36.82;101666.00;5041564;28;20932;-66
2022/03/01 08:36:08;;;;;;;23.50;14.60;;;;;;;10.85;35.79;101648.78;5042318;28;20521;-67
2022/03/01 08:38:37;;;;;;;19.03;13.30;;;;;;;12.36;34.58;101662.75;5041769;28;20449;-66
2022/03/01 08:41:04;;;;;;;19.77;12.50;;;;;;;11.08;34.76;101655.19;5042578;28;20434;-66
2022/03/01 08:43:30;;;;;;;19.50;12.10;;;;;;;10.54;36.15;101661.63;5042002;28;20508;-67
2022/03/01 08:45:57;;;;;;;21.70;13.80;;;;;;;9.54;38.58;101663.75;5041210;28;20454;-66
2022/03/01 08:48:25;;;;;;;21.07;12.30;;;;;;;11.37;35.73;101655.78;5040855;28;20471;-66
2022/03/01 08:50:52;;;;;;;21.23;12.63;;;;;;;10.76;35.65;101650.28;5042003;28;20510;-68
2022/03/01 08:53:20;;;;;;;18.40;12.70;;;;;;;10.62;36.59;101648.56;5038933;28;20572;-67
2022/03/01 08:55:48;;;;;;;18.13;12.83;;;;;;;10.96;35.98;101646.22;5041340;28;20438;-68
2022/03/01 08:58:14;;;;;;;21.13;13.63;;;;;;;11.00;35.63;101641.50;5042090;28;20464;-66
2022/03/01 09:00:41;;;;;;;19.10;13.20;;;;;;;10.53;36.32;101657.25;5041338;28;20466;-67
2022/03/01 09:03:08;;;;;;;19.63;13.10;;;;;;;11.43;35.51;101652.66;5040722;28;20446;-68
2022/03/01 09:05:35;;;;;;;20.43;13.13;;;;;;;12.76;32.75;101648.09;5041962;28;20545;-67
2022/03/01 09:08:02;;;;;;;22.43;13.30;;;;;;;13.27;31.33;101644.03;5041314;28;20530;-67
2022/03/01 09:10:28;;;;;;;18.40;12.30;;;;;;;13.88;30.36;101651.63;5041225;28;21195;-68
2022/03/01 09:12:58;;;;;;;19.50;12.70;;;;;;;14.64;28.58;101655.03;5038726;28;20548;-66
2022/03/01 09:15:25;;;;;;;18.30;11.90;;;;;;;13.81;30.09;101659.34;5039176;28;20453;-68
2022/03/01 09:17:52;;;;;;;17.60;11.73;;;;;;;13.64;30.19;101660.72;5039212;28;20452;-65
2022/03/01 09:20:19;;;;;;;17.67;12.27;;;;;;;12.33;33.12;101660.31;5039989;28;20450;-68
2022/03/01 09:22:46;;;;;;;17.10;12.90;;;;;;;13.89;30.17;101650.66;5039442;28;20484;-67
2022/03/01 09:25:13;;;;;;;19.67;13.10;;;;;;;12.89;31.59;101651.47;5039908;28;20512;-68
2022/03/01 09:27:39;;;;;;;16.10;12.50;;;;;;;14.30;30.21;101648.97;5040577;28;20426;-68
2022/03/01 09:30:09;;;;;;;18.50;13.07;;;;;;;14.01;28.95;101646.94;5039186;28;21047;-68
2022/03/01 09:32:35;;;;;;;19.30;12.80;;;;;;;12.95;31.11;101642.09;5039845;28;20486;-68
2022/03/01 09:35:02;;;;;;;15.77;11.40;;;;;;;12.19;33.09;101642.59;5038624;28;20484;-68
2022/03/01 09:37:31;;;;;;;17.60;12.93;;;;;;;13.11;31.24;101636.38;5038667;28;20524;-68
2022/03/01 09:39:58;;;;;;;15.53;11.07;;;;;;;13.45;30.17;101639.03;5039573;28;20449;-68
2022/03/01 09:42:26;;;;;;;15.97;11.67;;;;;;;11.94;33.02;101632.00;5039466;28;20434;-68
2022/03/01 09:44:54;;;;;;;19.13;11.90;;;;;;;13.62;30.80;101630.44;5038368;28;20445;-69
2022/03/01 09:47:22;;;;;;;15.07;11.13;;;;;;;12.10;32.21;101635.25;5038223;28;20514;-69
2022/03/01 09:49:48;;;;;;;15.90;11.73;;;;;;;10.70;34.15;101627.50;5039503;28;20470;-68
2022/03/01 09:52:16;;;;;;;16.17;11.13;;;;;;;10.40;34.99;101643.88;5038557;28;20485;-68
2022/03/01 09:54:43;;;;;;;16.87;11.83;;;;;;;11.63;33.46;101639.59;5036815;28;20511;-66
2022/03/01 09:57:12;;;;;;;16.00;11.27;;;;;;;10.88;35.27;101649.44;5038962;28;20465;-68
2022/03/01 09:59:39;;;;;;;16.40;11.73;;;;;;;12.32;33.48;101644.31;5037163;28;20501;-67
2022/03/01 10:02:05;;;;;;;17.53;11.37;;;;;;;11.99;32.39;101633.34;5038691;28;20879;-68
2022/03/01 10:04:33;;;;;;;15.60;11.50;;;;;;;11.90;33.32;101627.81;5038209;28;20518;-68
2022/03/01 10:07:04;;;;;;;22.83;14.27;;;;;;;11.81;33.70;101629.38;5038545;28;20453;-68
2022/03/01 10:09:30;;;;;;;20.47;13.90;;;;;;;11.65;33.53;101624.31;5038355;28;20480;-66
2022/03/01 10:12:04;;;;;;;20.57;13.80;;;;;;;11.05;34.44;101625.97;5038177;28;20508;-68
2022/03/01 10:14:32;;;;;;;19.67;13.60;;;;;;;11.27;34.89;101625.28;5037293;28;20580;-68
2022/03/01 10:16:59;;;;;;;22.23;14.83;;;;;;;12.09;33.05;101627.31;5038815;28;20993;-68
2022/03/01 10:19:26;;;;;;;29.13;16.70;;;;;;;13.17;31.51;101625.97;5037862;28;20548;-69
2022/03/01 10:22:00;;;;;;;21.77;16.50;;;;;;;13.15;31.50;101619.88;5039866;28;20437;-68
2022/03/01 10:24:27;;;;;;;22.20;15.73;;;;;;;12.77;32.06;101618.41;5037379;28;20526;-68
2022/03/01 10:26:57;;;;;;;23.00;15.00;;;;;;;12.29;32.68;101626.66;5037098;28;20505;-69
2022/03/01 10:29:27;;;;;;;23.77;16.80;;;;;;;12.53;32.58;101631.91;5039161;28;20884;-68
2022/03/01 10:31:59;;;;;;;30.97;20.20;;;;;;;14.24;29.51;101631.53;5038746;28;20505;-69
2022/03/01 10:34:26;;;;;;;21.47;17.63;;;;;;;15.47;27.51;101636.09;5038166;28;20528;-68
2022/03/01 10:36:53;;;;;;;22.13;16.73;;;;;;;14.91;29.52;101633.91;5036689;28;20513;-69
2022/03/01 10:39:26;;;;;;;20.63;15.47;;;;;;;15.81;27.43;101628.53;5038422;28;20541;-69
2022/03/01 10:41:53;;;;;;;22.07;17.50;;;;;;;15.87;26.95;101631.66;5039617;28;20841;-68
2022/03/01 10:44:21;;;;;;;26.60;19.07;;;;;;;14.42;29.10;101633.63;5042070;28;21229;-68
2022/03/01 10:46:50;;;;;;;19.20;14.70;;;;;;;12.74;32.17;101626.72;5042675;28;20964;-68
2022/03/01 10:49:20;;;;;;;21.43;15.20;;;;;;;12.11;32.24;101636.09;5041667;28;20569;-68
2022/03/01 10:51:51;;;;;;;22.97;14.43;;;;;;;12.10;32.61;101637.06;5042635;28;20529;-66
2022/03/01 10:54:30;;;;;;;19.47;14.20;;;;;;;13.06;31.91;101636.72;5040398;28;20477;-69
2022/03/01 10:56:57;;;;;;;18.90;13.60;;;;;;;13.20;30.94;101632.94;5040868;28;20498;-68
2022/03/01 10:59:25;;;;;;;18.73;14.00;;;;;;;13.12;31.11;101628.19;5042089;28;20492;-67
2022/03/01 11:01:52;;;;;;;20.03;15.20;;;;;;;12.49;31.65;101632.31;5042395;28;20879;-68
2022/03/01 11:04:21;;;;;;;19.73;13.83;;;;;;;11.55;33.10;101621.44;5041558;28;20484;-68
2022/03/01 11:06:49;;;;;;;20.37;12.43;;;;;;;11.88;33.26;101623.41;5042981;28;20445;-68
2022/03/01 11:09:16;;;;;;;19.60;12.80;;;;;;;11.68;34.35;101622.25;5041691;28;20492;-68
2022/03/01 11:11:45;;;;;;;15.50;11.17;;;;;;;11.58;34.46;101614.97;5042768;28;20481;-68
2022/03/01 11:14:14;;;;;;;16.63;11.20;;;;;;;10.64;35.55;101619.03;5041596;28;20485;-67
2022/03/01 11:16:49;;;;;;;17.30;11.23;;;;;;;10.42;36.45;101617.03;5041834;28;20864;-68